sensor_id;sensor_type;location;lat;lon;timestamp;pressure;altitude;pressure_sealevel;temperature;humidity
63708;BME280;67643;-34.198;22.084;2023-04-07T02:05:08;99395.03;;;19.34;58.13
63708;BME280;67643;-34.198;22.084;2023-04-07T02:07:44;99390.43;;;20.34;54.16
63708;BME280;67643;-34.198;22.084;2023-04-07T02:10:19;99383.94;;;21.60;50.55
63708;BME280;67643;-34.198;22.084;2023-04-07T02:12:48;99388.58;;;22.50;48.95
63708;BME280;67643;-34.198;22.084;2023-04-07T02:15:19;99386.86;;;22.35;48.26
63708;BME280;67643;-34.198;22.084;2023-04-07T02:17:52;99371.23;;;21.94;48.94
63708;BME280;67643;-34.198;22.084;2023-04-07T02:20:21;99380.43;;;23.03;46.83
63708;BME280;67643;-34.198;22.084;2023-04-07T02:22:51;99391.12;;;23.10;46.32
63708;BME280;67643;-34.198;22.084;2023-04-07T02:25:25;99400.29;;;22.35;47.39
63708;BME280;67643;-34.198;22.084;2023-04-07T02:27:59;99405.50;;;22.97;46.40
63708;BME280;67643;-34.198;22.084;2023-04-07T02:30:29;99401.49;;;22.80;46.48
63708;BME280;67643;-34.198;22.084;2023-04-07T02:32:57;99408.98;;;23.06;46.01
63708;BME280;67643;-34.198;22.084;2023-04-07T02:35:26;99413.26;;;22.69;46.59
63708;BME280;67643;-34.198;22.084;2023-04-07T02:37:55;99420.74;;;23.11;46.33
63708;BME280;67643;-34.198;22.084;2023-04-07T02:40:23;99426.30;;;22.91;46.16
63708;BME280;67643;-34.198;22.084;2023-04-07T02:42:57;99436.10;;;23.05;45.78
63708;BME280;67643;-34.198;22.084;2023-04-07T02:45:25;99440.92;;;22.77;46.14
63708;BME280;67643;-34.198;22.084;2023-04-07T02:47:54;99453.74;;;21.70;47.75
63708;BME280;67643;-34.198;22.084;2023-04-07T02:50:22;99451.26;;;22.13;47.00
63708;BME280;67643;-34.198;22.084;2023-04-07T02:52:56;99461.25;;;22.29;46.50
63708;BME280;67643;-34.198;22.084;2023-04-07T02:55:25;99463.09;;;22.19;46.80
63708;BME280;67643;-34.198;22.084;2023-04-07T02:57:55;99457.94;;;22.56;45.93
63708;BME280;67643;-34.198;22.084;2023-04-07T03:00:24;99463.24;;;22.35;46.04
63708;BME280;67643;-34.198;22.084;2023-04-07T03:02:53;99466.03;;;23.09;44.95
63708;BME280;67643;-34.198;22.084;2023-04-07T03:05:22;99465.75;;;22.55;45.32
63708;BME280;67643;-34.198;22.084;2023-04-07T03:07:57;99470.27;;;22.61;45.17
63708;BME280;67643;-34.198;22.084;2023-04-07T03:10:25;99473.81;;;22.87;45.15
63708;BME280;67643;-34.198;22.084;2023-04-07T03:12:55;99472.34;;;22.68;45.34
63708;BME280;67643;-34.198;22.084;2023-04-07T03:15:24;99461.09;;;23.23;44.95
63708;BME280;67643;-34.198;22.084;2023-04-07T03:17:52;99469.24;;;22.70;45.69
63708;BME280;67643;-34.198;22.084;2023-04-07T03:20:21;99472.62;;;22.35;45.88
63708;BME280;67643;-34.198;22.084;2023-04-07T03:22:51;99473.30;;;21.57;47.01
63708;BME280;67643;-34.198;22.084;2023-04-07T03:25:20;99484.68;;;22.47;45.82
63708;BME280;67643;-34.198;22.084;2023-04-07T03:27:48;99497.67;;;22.73;45.38
63708;BME280;67643;-34.198;22.084;2023-04-07T03:30:16;99496.38;;;22.44;45.70
63708;BME280;67643;-34.198;22.084;2023-04-07T03:32:45;99493.73;;;22.35;45.92
63708;BME280;67643;-34.198;22.084;2023-04-07T03:35:13;99511.10;;;22.59;45.35
63708;BME280;67643;-34.198;22.084;2023-04-07T03:37:42;99506.05;;;22.64;45.35
63708;BME280;67643;-34.198;22.084;2023-04-07T03:40:11;99510.51;;;22.08;45.97
63708;BME280;67643;-34.198;22.084;2023-04-07T03:42:41;99508.65;;;22.79;45.00
63708;BME280;67643;-34.198;22.084;2023-04-07T03:45:10;99506.53;;;21.93;46.30
63708;BME280;67643;-34.198;22.084;2023-04-07T03:47:39;99518.62;;;22.41;45.44
63708;BME280;67643;-34.198;22.084;2023-04-07T03:50:08;99527.38;;;22.57;44.79
63708;BME280;67643;-34.198;22.084;2023-04-07T03:52:37;99533.54;;;22.84;44.66
63708;BME280;67643;-34.198;22.084;2023-04-07T03:55:07;99530.49;;;22.54;45.15
63708;BME280;67643;-34.198;22.084;2023-04-07T03:57:36;99534.55;;;22.73;44.90
63708;BME280;67643;-34.198;22.084;2023-04-07T04:00:06;99537.26;;;21.94;45.59
63708;BME280;67643;-34.198;22.084;2023-04-07T04:02:35;99538.91;;;22.15;45.69
63708;BME280;67643;-34.198;22.084;2023-04-07T04:05:03;99550.17;;;23.06;44.29
63708;BME280;67643;-34.198;22.084;2023-04-07T04:07:31;99563.50;;;22.33;44.99
63708;BME280;67643;-34.198;22.084;2023-04-07T04:10:01;99561.76;;;22.30;45.38
63708;BME280;67643;-34.198;22.084;2023-04-07T04:12:30;99552.04;;;22.50;45.08
63708;BME280;67643;-34.198;22.084;2023-04-07T04:14:59;99560.14;;;22.06;45.67
63708;BME280;67643;-34.198;22.084;2023-04-07T04:17:28;99552.22;;;22.83;44.57
63708;BME280;67643;-34.198;22.084;2023-04-07T04:19:56;99558.81;;;21.77;46.22
63708;BME280;67643;-34.198;22.084;2023-04-07T04:22:25;99583.06;;;22.45;45.04
63708;BME280;67643;-34.198;22.084;2023-04-07T04:24:53;99583.65;;;21.51;46.57
63708;BME280;67643;-34.198;22.084;2023-04-07T04:27:22;99560.70;;;22.29;45.24
63708;BME280;67643;-34.198;22.084;2023-04-07T04:29:51;99559.63;;;22.68;44.60
63708;BME280;67643;-34.198;22.084;2023-04-07T04:32:19;99575.03;;;22.78;44.34
63708;BME280;67643;-34.198;22.084;2023-04-07T04:34:48;99584.37;;;22.06;45.51
63708;BME280;67643;-34.198;22.084;2023-04-07T04:37:16;99600.17;;;21.70;45.95
63708;BME280;67643;-34.198;22.084;2023-04-07T04:39:44;99565.94;;;22.48;44.76
63708;BME280;67643;-34.198;22.084;2023-04-07T04:42:13;99587.42;;;21.49;46.33
63708;BME280;67643;-34.198;22.084;2023-04-07T04:44:41;99602.19;;;22.27;45.12
63708;BME280;67643;-34.198;22.084;2023-04-07T04:47:10;99605.66;;;22.08;45.26
63708;BME280;67643;-34.198;22.084;2023-04-07T04:49:38;99605.74;;;22.14;45.13
63708;BME280;67643;-34.198;22.084;2023-04-07T04:52:07;99600.71;;;22.80;44.14
63708;BME280;67643;-34.198;22.084;2023-04-07T04:54:35;99622.92;;;22.43;44.47
63708;BME280;67643;-34.198;22.084;2023-04-07T04:57:04;99620.73;;;21.51;45.96
63708;BME280;67643;-34.198;22.084;2023-04-07T04:59:33;99599.35;;;22.29;44.73
63708;BME280;67643;-34.198;22.084;2023-04-07T05:02:02;99640.13;;;22.37;44.43
63708;BME280;67643;-34.198;22.084;2023-04-07T05:04:30;99633.45;;;22.87;43.65
63708;BME280;67643;-34.198;22.084;2023-04-07T05:06:59;99630.43;;;22.60;44.04
63708;BME280;67643;-34.198;22.084;2023-04-07T05:09:27;99621.78;;;22.42;44.32
63708;BME280;67643;-34.198;22.084;2023-04-07T05:11:57;99637.54;;;21.32;46.00
63708;BME280;67643;-34.198;22.084;2023-04-07T05:14:25;99652.22;;;21.43;45.94
63708;BME280;67643;-34.198;22.084;2023-04-07T05:16:54;99651.69;;;21.49;46.37
63708;BME280;67643;-34.198;22.084;2023-04-07T05:19:22;99649.02;;;21.59;45.83
63708;BME280;67643;-34.198;22.084;2023-04-07T05:21:51;99657.23;;;22.54;45.00
63708;BME280;67643;-34.198;22.084;2023-04-07T05:24:19;99664.18;;;22.17;45.24
63708;BME280;67643;-34.198;22.084;2023-04-07T05:26:47;99664.80;;;22.01;45.56
63708;BME280;67643;-34.198;22.084;2023-04-07T05:29:16;99667.20;;;22.45;44.90
63708;BME280;67643;-34.198;22.084;2023-04-07T05:31:44;99671.96;;;21.77;45.66
63708;BME280;67643;-34.198;22.084;2023-04-07T05:34:12;99671.94;;;22.34;45.59
63708;BME280;67643;-34.198;22.084;2023-04-07T05:36:41;99668.60;;;21.72;45.68
63708;BME280;67643;-34.198;22.084;2023-04-07T05:39:09;99676.08;;;22.64;44.62
63708;BME280;67643;-34.198;22.084;2023-04-07T05:41:38;99680.39;;;21.83;45.70
63708;BME280;67643;-34.198;22.084;2023-04-07T05:44:06;99682.26;;;22.00;45.61
63708;BME280;67643;-34.198;22.084;2023-04-07T05:46:35;99693.77;;;21.38;46.54
63708;BME280;67643;-34.198;22.084;2023-04-07T05:49:03;99694.31;;;21.89;45.71
63708;BME280;67643;-34.198;22.084;2023-04-07T05:51:32;99698.62;;;22.60;44.95
63708;BME280;67643;-34.198;22.084;2023-04-07T05:54:02;99707.40;;;22.56;44.69
63708;BME280;67643;-34.198;22.084;2023-04-07T05:56:30;99701.68;;;22.18;45.50
63708;BME280;67643;-34.198;22.084;2023-04-07T05:58:59;99710.62;;;22.34;45.55
63708;BME280;67643;-34.198;22.084;2023-04-07T06:01:28;99718.35;;;22.62;45.05
63708;BME280;67643;-34.198;22.084;2023-04-07T06:03:56;99714.42;;;22.91;44.63
63708;BME280;67643;-34.198;22.084;2023-04-07T06:06:25;99717.42;;;22.82;44.56
63708;BME280;67643;-34.198;22.084;2023-04-07T06:08:53;99719.16;;;22.75;45.03
63708;BME280;67643;-34.198;22.084;2023-04-07T06:11:22;99716.15;;;22.99;44.74
63708;BME280;67643;-34.198;22.084;2023-04-07T06:13:52;99720.17;;;22.94;44.54
63708;BME280;67643;-34.198;22.084;2023-04-07T06:16:21;99722.71;;;22.92;44.70
63708;BME280;67643;-34.198;22.084;2023-04-07T06:18:49;99732.13;;;22.72;44.83
63708;BME280;67643;-34.198;22.084;2023-04-07T06:21:18;99741.24;;;22.86;45.15
63708;BME280;67643;-34.198;22.084;2023-04-07T06:23:47;99736.48;;;23.08;44.23
63708;BME280;67643;-34.198;22.084;2023-04-07T06:26:15;99744.36;;;23.16;44.40
63708;BME280;67643;-34.198;22.084;2023-04-07T06:28:44;99747.94;;;22.68;44.66
63708;BME280;67643;-34.198;22.084;2023-04-07T06:31:13;99752.44;;;22.81;44.33
63708;BME280;67643;-34.198;22.084;2023-04-07T06:33:42;99750.86;;;22.92;44.17
63708;BME280;67643;-34.198;22.084;2023-04-07T06:36:11;99755.89;;;22.17;45.04
63708;BME280;67643;-34.198;22.084;2023-04-07T06:38:39;99761.20;;;22.34;44.65
63708;BME280;67643;-34.198;22.084;2023-04-07T06:41:08;99764.84;;;22.55;44.38
63708;BME280;67643;-34.198;22.084;2023-04-07T06:43:37;99772.56;;;23.12;43.16
63708;BME280;67643;-34.198;22.084;2023-04-07T06:46:05;99772.07;;;21.90;44.72
63708;BME280;67643;-34.198;22.084;2023-04-07T06:48:34;99772.73;;;22.85;43.36
63708;BME280;67643;-34.198;22.084;2023-04-07T06:51:03;99780.48;;;22.36;43.83
63708;BME280;67643;-34.198;22.084;2023-04-07T06:53:31;99779.27;;;22.85;43.48
63708;BME280;67643;-34.198;22.084;2023-04-07T06:56:04;99781.15;;;22.92;42.83
63708;BME280;67643;-34.198;22.084;2023-04-07T06:58:33;99780.98;;;22.21;43.50
63708;BME280;67643;-34.198;22.084;2023-04-07T07:01:06;99785.96;;;22.07;43.81
63708;BME280;67643;-34.198;22.084;2023-04-07T07:03:35;99786.41;;;22.54;42.97
63708;BME280;67643;-34.198;22.084;2023-04-07T07:06:04;99796.77;;;23.21;42.25
63708;BME280;67643;-34.198;22.084;2023-04-07T07:08:33;99802.38;;;22.74;42.41
63708;BME280;67643;-34.198;22.084;2023-04-07T07:11:01;99801.24;;;22.52;42.71
63708;BME280;67643;-34.198;22.084;2023-04-07T07:13:30;99811.77;;;23.28;42.17
63708;BME280;67643;-34.198;22.084;2023-04-07T07:15:59;99810.11;;;23.13;41.43
63708;BME280;67643;-34.198;22.084;2023-04-07T07:18:28;99813.63;;;22.87;41.76
63708;BME280;67643;-34.198;22.084;2023-04-07T07:20:56;99816.16;;;22.03;42.64
63708;BME280;67643;-34.198;22.084;2023-04-07T07:23:25;99811.73;;;22.44;42.31
63708;BME280;67643;-34.198;22.084;2023-04-07T07:25:53;99807.38;;;22.44;41.81
63708;BME280;67643;-34.198;22.084;2023-04-07T07:28:22;99808.01;;;22.66;41.45
63708;BME280;67643;-34.198;22.084;2023-04-07T07:30:50;99807.44;;;22.51;41.34
63708;BME280;67643;-34.198;22.084;2023-04-07T07:33:19;99804.42;;;23.14;40.58
63708;BME280;67643;-34.198;22.084;2023-04-07T07:35:47;99800.59;;;22.46;41.30
63708;BME280;67643;-34.198;22.084;2023-04-07T07:38:16;99796.20;;;22.97;40.55
63708;BME280;67643;-34.198;22.084;2023-04-07T07:40:44;99797.24;;;22.72;40.74
63708;BME280;67643;-34.198;22.084;2023-04-07T07:43:13;99797.63;;;22.29;41.21
63708;BME280;67643;-34.198;22.084;2023-04-07T07:45:41;99797.15;;;23.10;40.39
63708;BME280;67643;-34.198;22.084;2023-04-07T07:48:09;99792.02;;;23.10;40.17
63708;BME280;67643;-34.198;22.084;2023-04-07T07:50:39;99794.15;;;23.15;40.36
63708;BME280;67643;-34.198;22.084;2023-04-07T07:53:07;99796.91;;;23.16;40.43
63708;BME280;67643;-34.198;22.084;2023-04-07T07:55:35;99792.76;;;22.96;40.42
63708;BME280;67643;-34.198;22.084;2023-04-07T07:58:04;99793.74;;;23.11;40.35
63708;BME280;67643;-34.198;22.084;2023-04-07T08:00:33;99794.27;;;23.16;40.28
63708;BME280;67643;-34.198;22.084;2023-04-07T08:03:01;99798.18;;;23.09;39.99
63708;BME280;67643;-34.198;22.084;2023-04-07T08:05:29;99795.34;;;23.06;39.95
63708;BME280;67643;-34.198;22.084;2023-04-07T08:07:58;99798.83;;;22.90;40.33
63708;BME280;67643;-34.198;22.084;2023-04-07T08:10:26;99795.81;;;23.45;39.75
63708;BME280;67643;-34.198;22.084;2023-04-07T08:12:54;99795.36;;;23.44;39.32
63708;BME280;67643;-34.198;22.084;2023-04-07T08:15:23;99802.03;;;23.12;40.45
63708;BME280;67643;-34.198;22.084;2023-04-07T08:17:52;99800.88;;;22.90;40.64
63708;BME280;67643;-34.198;22.084;2023-04-07T08:20:22;99803.46;;;22.71;40.93
63708;BME280;67643;-34.198;22.084;2023-04-07T08:22:50;99806.65;;;23.10;40.52
63708;BME280;67643;-34.198;22.084;2023-04-07T08:25:20;99805.07;;;23.13;41.15
63708;BME280;67643;-34.198;22.084;2023-04-07T08:27:48;99801.69;;;22.92;41.93
63708;BME280;67643;-34.198;22.084;2023-04-07T08:30:17;99801.45;;;23.16;40.72
63708;BME280;67643;-34.198;22.084;2023-04-07T08:32:45;99800.68;;;22.37;41.25
63708;BME280;67643;-34.198;22.084;2023-04-07T08:35:14;99805.94;;;22.87;40.24
63708;BME280;67643;-34.198;22.084;2023-04-07T08:37:42;99803.27;;;23.15;39.95
63708;BME280;67643;-34.198;22.084;2023-04-07T08:40:11;99799.44;;;23.34;39.98
63708;BME280;67643;-34.198;22.084;2023-04-07T08:42:42;99797.91;;;23.39;39.57
63708;BME280;67643;-34.198;22.084;2023-04-07T08:45:15;99790.23;;;23.62;39.05
63708;BME280;67643;-34.198;22.084;2023-04-07T08:47:46;99796.67;;;23.34;39.99
63708;BME280;67643;-34.198;22.084;2023-04-07T08:50:17;99789.01;;;23.63;39.84
63708;BME280;67643;-34.198;22.084;2023-04-07T08:52:52;99788.71;;;23.59;39.84
63708;BME280;67643;-34.198;22.084;2023-04-07T08:55:21;99793.03;;;23.88;39.56
63708;BME280;67643;-34.198;22.084;2023-04-07T08:57:51;99794.63;;;23.60;39.90
63708;BME280;67643;-34.198;22.084;2023-04-07T09:00:20;99792.93;;;23.70;40.00
63708;BME280;67643;-34.198;22.084;2023-04-07T09:02:50;99798.78;;;23.25;40.49
63708;BME280;67643;-34.198;22.084;2023-04-07T09:05:20;99797.95;;;23.09;39.91
63708;BME280;67643;-34.198;22.084;2023-04-07T09:07:49;99797.34;;;23.52;39.20
63708;BME280;67643;-34.198;22.084;2023-04-07T09:10:18;99792.66;;;24.48;37.64
63708;BME280;67643;-34.198;22.084;2023-04-07T09:12:46;99793.15;;;24.45;37.72
63708;BME280;67643;-34.198;22.084;2023-04-07T09:15:15;99792.65;;;24.38;37.90
63708;BME280;67643;-34.198;22.084;2023-04-07T09:17:43;99791.59;;;24.29;38.01
63708;BME280;67643;-34.198;22.084;2023-04-07T09:20:13;99795.61;;;23.77;38.56
63708;BME280;67643;-34.198;22.084;2023-04-07T09:22:43;99798.03;;;23.36;39.09
63708;BME280;67643;-34.198;22.084;2023-04-07T09:25:15;99798.45;;;23.24;39.19
63708;BME280;67643;-34.198;22.084;2023-04-07T09:28:01;99787.59;;;24.71;37.47
63708;BME280;67643;-34.198;22.084;2023-04-07T09:30:31;99777.65;;;24.80;37.33
63708;BME280;67643;-34.198;22.084;2023-04-07T09:33:01;99777.95;;;24.35;37.77
63708;BME280;67643;-34.198;22.084;2023-04-07T09:35:30;99774.05;;;24.53;37.36
63708;BME280;67643;-34.198;22.084;2023-04-07T09:38:03;99773.73;;;24.23;37.12
63708;BME280;67643;-34.198;22.084;2023-04-07T09:40:32;99774.41;;;24.76;36.19
63708;BME280;67643;-34.198;22.084;2023-04-07T09:43:02;99773.93;;;24.56;36.92
63708;BME280;67643;-34.198;22.084;2023-04-07T09:45:31;99776.37;;;25.09;36.44
63708;BME280;67643;-34.198;22.084;2023-04-07T09:48:05;99772.88;;;24.85;36.60
63708;BME280;67643;-34.198;22.084;2023-04-07T09:50:35;99765.77;;;24.94;36.47
63708;BME280;67643;-34.198;22.084;2023-04-07T09:53:04;99763.54;;;25.32;36.18
63708;BME280;67643;-34.198;22.084;2023-04-07T09:55:33;99761.79;;;25.18;35.93
63708;BME280;67643;-34.198;22.084;2023-04-07T09:58:04;99760.82;;;25.10;36.40
63708;BME280;67643;-34.198;22.084;2023-04-07T10:00:35;99760.95;;;25.05;35.93
63708;BME280;67643;-34.198;22.084;2023-04-07T10:03:04;99760.18;;;25.20;36.35
63708;BME280;67643;-34.198;22.084;2023-04-07T10:05:34;99756.56;;;25.43;35.49
63708;BME280;67643;-34.198;22.084;2023-04-07T10:08:05;99752.75;;;25.46;35.31
63708;BME280;67643;-34.198;22.084;2023-04-07T10:10:34;99749.45;;;25.32;35.58
63708;BME280;67643;-34.198;22.084;2023-04-07T10:13:04;99752.17;;;24.75;36.49
63708;BME280;67643;-34.198;22.084;2023-04-07T10:15:34;99752.61;;;25.01;36.03
63708;BME280;67643;-34.198;22.084;2023-04-07T10:18:05;99753.39;;;24.91;36.59
63708;BME280;67643;-34.198;22.084;2023-04-07T10:20:35;99755.67;;;25.37;36.94
63708;BME280;67643;-34.198;22.084;2023-04-07T10:23:15;99756.33;;;24.18;38.25
63708;BME280;67643;-34.198;22.084;2023-04-07T10:25:45;99758.01;;;25.24;37.23
63708;BME280;67643;-34.198;22.084;2023-04-07T10:28:16;99756.99;;;25.26;37.15
63708;BME280;67643;-34.198;22.084;2023-04-07T10:30:47;99756.29;;;24.16;38.12
63708;BME280;67643;-34.198;22.084;2023-04-07T10:33:17;99756.59;;;24.63;37.24
63708;BME280;67643;-34.198;22.084;2023-04-07T10:36:18;99756.98;;;25.11;37.24
63708;BME280;67643;-34.198;22.084;2023-04-07T10:39:20;99755.92;;;25.03;37.45
63708;BME280;67643;-34.198;22.084;2023-04-07T10:41:50;99754.05;;;24.48;37.84
63708;BME280;67643;-34.198;22.084;2023-04-07T10:44:50;99753.95;;;25.04;37.45
63708;BME280;67643;-34.198;22.084;2023-04-07T10:47:19;99751.07;;;24.83;37.80
63708;BME280;67643;-34.198;22.084;2023-04-07T10:50:22;99750.44;;;24.94;37.71
63708;BME280;67643;-34.198;22.084;2023-04-07T10:53:07;99746.50;;;24.82;37.63
63708;BME280;67643;-34.198;22.084;2023-04-07T10:55:37;99740.56;;;24.96;37.88
63708;BME280;67643;-34.198;22.084;2023-04-07T10:58:18;99735.79;;;24.47;38.33
63708;BME280;67643;-34.198;22.084;2023-04-07T11:01:18;99729.46;;;24.78;38.20
63708;BME280;67643;-34.198;22.084;2023-04-07T11:03:58;99727.26;;;24.64;38.39
63708;BME280;67643;-34.198;22.084;2023-04-07T11:06:27;99723.48;;;25.23;37.57
63708;BME280;67643;-34.198;22.084;2023-04-07T11:08:56;99725.41;;;24.50;38.08
63708;BME280;67643;-34.198;22.084;2023-04-07T11:11:41;99721.63;;;24.32;38.44
63708;BME280;67643;-34.198;22.084;2023-04-07T11:14:09;99722.42;;;24.77;37.72
63708;BME280;67643;-34.198;22.084;2023-04-07T11:16:40;99723.48;;;25.09;37.69
63708;BME280;67643;-34.198;22.084;2023-04-07T11:19:09;99724.13;;;24.12;38.48
63708;BME280;67643;-34.198;22.084;2023-04-07T11:21:38;99722.79;;;23.86;38.90
63708;BME280;67643;-34.198;22.084;2023-04-07T11:24:07;99717.99;;;24.25;38.34
63708;BME280;67643;-34.198;22.084;2023-04-07T11:26:39;99718.91;;;24.74;37.96
63708;BME280;67643;-34.198;22.084;2023-04-07T11:29:08;99717.76;;;24.66;37.46
63708;BME280;67643;-34.198;22.084;2023-04-07T11:31:36;99722.91;;;24.37;37.79
63708;BME280;67643;-34.198;22.084;2023-04-07T11:34:06;99718.95;;;23.97;38.34
63708;BME280;67643;-34.198;22.084;2023-04-07T11:36:37;99722.86;;;24.07;38.18
63708;BME280;67643;-34.198;22.084;2023-04-07T11:39:17;99713.11;;;24.13;38.22
63708;BME280;67643;-34.198;22.084;2023-04-07T11:41:46;99712.50;;;24.66;37.62
63708;BME280;67643;-34.198;22.084;2023-04-07T11:44:15;99713.80;;;24.57;37.57
63708;BME280;67643;-34.198;22.084;2023-04-07T11:46:53;99712.44;;;24.49;37.79
63708;BME280;67643;-34.198;22.084;2023-04-07T11:49:23;99711.82;;;24.59;37.96
63708;BME280;67643;-34.198;22.084;2023-04-07T11:51:59;99715.42;;;24.84;37.05
63708;BME280;67643;-34.198;22.084;2023-04-07T11:54:37;99712.46;;;24.84;37.70
63708;BME280;67643;-34.198;22.084;2023-04-07T11:57:06;99715.82;;;25.21;37.18
63708;BME280;67643;-34.198;22.084;2023-04-07T11:59:34;99717.81;;;25.08;37.30
63708;BME280;67643;-34.198;22.084;2023-04-07T12:02:03;99714.19;;;24.87;36.95
63708;BME280;67643;-34.198;22.084;2023-04-07T12:04:31;99721.76;;;24.68;37.19
63708;BME280;67643;-34.198;22.084;2023-04-07T12:07:08;99724.93;;;24.43;37.58
63708;BME280;67643;-34.198;22.084;2023-04-07T12:09:38;99724.20;;;24.64;37.94
63708;BME280;67643;-34.198;22.084;2023-04-07T12:12:07;99720.26;;;24.37;38.00
63708;BME280;67643;-34.198;22.084;2023-04-07T12:14:36;99722.45;;;24.57;37.66
63708;BME280;67643;-34.198;22.084;2023-04-07T12:17:05;99724.04;;;24.93;37.27
63708;BME280;67643;-34.198;22.084;2023-04-07T12:19:33;99725.17;;;24.86;37.96
63708;BME280;67643;-34.198;22.084;2023-04-07T12:22:02;99723.93;;;24.02;38.70
63708;BME280;67643;-34.198;22.084;2023-04-07T12:24:30;99725.63;;;24.60;37.48
63708;BME280;67643;-34.198;22.084;2023-04-07T12:26:59;99719.52;;;25.37;36.97
63708;BME280;67643;-34.198;22.084;2023-04-07T12:29:28;99722.68;;;25.46;36.87
63708;BME280;67643;-34.198;22.084;2023-04-07T12:31:57;99730.87;;;25.41;37.23
63708;BME280;67643;-34.198;22.084;2023-04-07T12:34:25;99727.25;;;25.39;37.79
63708;BME280;67643;-34.198;22.084;2023-04-07T12:36:54;99727.66;;;25.35;38.00
63708;BME280;67643;-34.198;22.084;2023-04-07T12:39:22;99730.84;;;25.56;38.54
63708;BME280;67643;-34.198;22.084;2023-04-07T12:41:51;99732.91;;;25.73;39.24
63708;BME280;67643;-34.198;22.084;2023-04-07T12:44:19;99739.09;;;25.34;39.90
63708;BME280;67643;-34.198;22.084;2023-04-07T12:46:48;99742.79;;;25.23;39.91
63708;BME280;67643;-34.198;22.084;2023-04-07T12:49:16;99742.10;;;25.74;39.60
63708;BME280;67643;-34.198;22.084;2023-04-07T12:51:45;99743.46;;;25.18;40.05
63708;BME280;67643;-34.198;22.084;2023-04-07T12:54:14;99736.48;;;25.63;39.54
63708;BME280;67643;-34.198;22.084;2023-04-07T12:56:42;99732.70;;;25.57;39.67
63708;BME280;67643;-34.198;22.084;2023-04-07T12:59:11;99730.20;;;25.25;40.16
63708;BME280;67643;-34.198;22.084;2023-04-07T13:01:40;99736.98;;;25.30;40.08
63708;BME280;67643;-34.198;22.084;2023-04-07T13:04:08;99744.52;;;25.31;40.35
63708;BME280;67643;-34.198;22.084;2023-04-07T13:06:37;99738.29;;;25.23;40.21
63708;BME280;67643;-34.198;22.084;2023-04-07T13:09:06;99741.59;;;25.76;40.07
63708;BME280;67643;-34.198;22.084;2023-04-07T13:11:34;99741.47;;;25.54;40.07
63708;BME280;67643;-34.198;22.084;2023-04-07T13:14:03;99747.48;;;25.13;40.46
63708;BME280;67643;-34.198;22.084;2023-04-07T13:16:32;99745.16;;;25.62;39.71
63708;BME280;67643;-34.198;22.084;2023-04-07T13:19:00;99745.81;;;25.57;39.86
63708;BME280;67643;-34.198;22.084;2023-04-07T13:21:29;99749.61;;;25.43;40.12
63708;BME280;67643;-34.198;22.084;2023-04-07T13:23:57;99754.31;;;25.46;40.06
63708;BME280;67643;-34.198;22.084;2023-04-07T13:26:25;99758.58;;;25.48;40.01
63708;BME280;67643;-34.198;22.084;2023-04-07T13:28:54;99760.97;;;25.73;39.76
63708;BME280;67643;-34.198;22.084;2023-04-07T13:31:24;99762.75;;;25.44;40.17
63708;BME280;67643;-34.198;22.084;2023-04-07T13:33:53;99764.61;;;25.27;40.11
63708;BME280;67643;-34.198;22.084;2023-04-07T13:36:22;99769.06;;;25.74;39.99
63708;BME280;67643;-34.198;22.084;2023-04-07T13:38:50;99770.07;;;26.11;39.47
63708;BME280;67643;-34.198;22.084;2023-04-07T13:41:18;99770.88;;;25.42;39.94
63708;BME280;67643;-34.198;22.084;2023-04-07T13:43:47;99771.98;;;25.50;39.73
63708;BME280;67643;-34.198;22.084;2023-04-07T13:46:15;99776.11;;;25.70;39.48
63708;BME280;67643;-34.198;22.084;2023-04-07T13:48:44;99777.31;;;25.67;39.55
63708;BME280;67643;-34.198;22.084;2023-04-07T13:51:13;99786.16;;;25.47;39.87
63708;BME280;67643;-34.198;22.084;2023-04-07T13:53:41;99788.39;;;25.91;39.72
63708;BME280;67643;-34.198;22.084;2023-04-07T13:56:10;99792.10;;;25.29;40.69
63708;BME280;67643;-34.198;22.084;2023-04-07T13:58:38;99797.06;;;25.52;40.49
63708;BME280;67643;-34.198;22.084;2023-04-07T14:01:07;99798.48;;;24.81;41.64
63708;BME280;67643;-34.198;22.084;2023-04-07T14:03:35;99800.02;;;25.39;41.29
63708;BME280;67643;-34.198;22.084;2023-04-07T14:06:04;99798.34;;;24.62;42.20
63708;BME280;67643;-34.198;22.084;2023-04-07T14:08:34;99795.76;;;24.67;42.11
63708;BME280;67643;-34.198;22.084;2023-04-07T14:11:02;99797.22;;;24.67;42.03
63708;BME280;67643;-34.198;22.084;2023-04-07T14:13:31;99796.62;;;24.87;41.58
63708;BME280;67643;-34.198;22.084;2023-04-07T14:16:00;99801.70;;;24.40;42.06
63708;BME280;67643;-34.198;22.084;2023-04-07T14:18:29;99799.87;;;24.48;42.30
63708;BME280;67643;-34.198;22.084;2023-04-07T14:20:57;99797.21;;;24.72;42.35
63708;BME280;67643;-34.198;22.084;2023-04-07T14:23:25;99793.16;;;24.29;43.13
63708;BME280;67643;-34.198;22.084;2023-04-07T14:25:54;99791.87;;;24.81;42.22
63708;BME280;67643;-34.198;22.084;2023-04-07T14:28:22;99794.09;;;24.12;42.92
63708;BME280;67643;-34.198;22.084;2023-04-07T14:30:52;99794.10;;;24.39;42.20
63708;BME280;67643;-34.198;22.084;2023-04-07T14:33:21;99797.41;;;24.56;42.58
63708;BME280;67643;-34.198;22.084;2023-04-07T14:35:50;99800.61;;;24.32;42.70
63708;BME280;67643;-34.198;22.084;2023-04-07T14:38:18;99802.65;;;24.45;42.60
63708;BME280;67643;-34.198;22.084;2023-04-07T14:40:47;99796.48;;;24.44;42.61
63708;BME280;67643;-34.198;22.084;2023-04-07T14:43:15;99797.92;;;23.69;44.04
63708;BME280;67643;-34.198;22.084;2023-04-07T14:45:43;99795.53;;;24.34;43.10
63708;BME280;67643;-34.198;22.084;2023-04-07T14:48:12;99794.57;;;24.13;43.30
63708;BME280;67643;-34.198;22.084;2023-04-07T14:50:40;99786.36;;;23.76;43.77
63708;BME280;67643;-34.198;22.084;2023-04-07T14:53:09;99785.56;;;24.13;43.62
63708;BME280;67643;-34.198;22.084;2023-04-07T14:55:37;99784.69;;;24.36;42.77
63708;BME280;67643;-34.198;22.084;2023-04-07T14:58:06;99786.95;;;24.55;42.98